createdAt,value
2022-12-05T00:01:38.903Z,41.17
2022-12-05T00:04:09.267Z,43.92
2022-12-05T00:06:38.529Z,42.83
2022-12-05T00:09:07.817Z,45.30
2022-12-05T00:11:38.298Z,46.35
2022-12-05T00:14:09.681Z,46.80
2022-12-05T00:16:39.842Z,45.53
2022-12-05T00:19:09.669Z,47.05
2022-12-05T00:21:38.938Z,45.55
2022-12-05T00:24:09.597Z,45.25
2022-12-05T00:26:38.098Z,46.97
2022-12-05T00:29:07.628Z,49.15
2022-12-05T00:31:35.802Z,45.22
2022-12-05T00:34:04.813Z,46.75
2022-12-05T00:36:34.115Z,44.38
2022-12-05T00:39:03.436Z,44.67
2022-12-05T00:41:31.774Z,44.03
2022-12-05T00:44:01.687Z,46.38
2022-12-05T00:46:32.474Z,47.45
2022-12-05T00:49:01.998Z,48.38
2022-12-05T00:51:32.118Z,50.53
2022-12-05T00:54:01.709Z,49.90
2022-12-05T00:56:31.216Z,49.38
2022-12-05T00:59:00.393Z,47.47
2022-12-05T01:01:32.707Z,47.38
2022-12-05T01:04:04.111Z,47.67
2022-12-05T01:06:32.363Z,51.30
2022-12-05T01:09:00.946Z,51.42
2022-12-05T01:11:29.402Z,51.70
2022-12-05T01:13:58.364Z,46.58
2022-12-05T01:16:29.490Z,50.42
2022-12-05T01:19:00.598Z,47.50
2022-12-05T01:21:28.628Z,47.67
2022-12-05T01:23:56.936Z,45.40
2022-12-05T01:26:25.353Z,46.60
2022-12-05T01:28:53.869Z,44.70
2022-12-05T01:31:25.518Z,45.83
2022-12-05T01:33:55.159Z,46.25
2022-12-05T01:36:26.508Z,46.00
2022-12-05T01:38:55.430Z,46.25
2022-12-05T01:41:25.593Z,48.85
2022-12-05T01:43:58.723Z,44.00
2022-12-05T01:46:27.980Z,44.97
2022-12-05T01:49:01.174Z,45.25
2022-12-05T01:51:31.965Z,43.92
2022-12-05T01:54:00.706Z,44.20
2022-12-05T01:56:28.888Z,40.13
2022-12-05T01:58:57.995Z,42.55
2022-12-05T02:01:26.024Z,38.33
2022-12-05T02:03:58.680Z,41.03
2022-12-05T02:06:28.313Z,40.50
2022-12-05T02:08:57.767Z,39.90
2022-12-05T02:11:30.227Z,38.30
2022-12-05T02:14:15.591Z,30.10
2022-12-05T02:16:58.195Z,33.97
2022-12-05T02:19:54.795Z,34.13
2022-12-05T02:22:36.738Z,31.75
2022-12-05T02:25:35.598Z,33.50
2022-12-05T02:28:29.369Z,26.85
2022-12-05T02:31:01.222Z,22.67
2022-12-05T02:33:38.423Z,20.38
2022-12-05T02:36:12.801Z,19.42
2022-12-05T02:38:47.718Z,21.10
2022-12-05T02:41:23.618Z,21.85
2022-12-05T02:43:56.650Z,23.33
2022-12-05T02:46:30.435Z,26.05
2022-12-05T02:49:01.546Z,25.40
2022-12-05T02:51:33.246Z,27.10
2022-12-05T02:54:05.287Z,27.50
2022-12-05T02:56:35.864Z,27.67
2022-12-05T02:59:04.625Z,33.80
2022-12-05T03:01:34.274Z,36.08
2022-12-05T03:04:05.516Z,31.40
2022-12-05T03:06:38.237Z,28.60
2022-12-05T03:09:11.161Z,29.52
2022-12-05T03:11:43.330Z,29.47
2022-12-05T03:14:18.529Z,27.48
2022-12-05T03:16:52.082Z,28.83
2022-12-05T03:19:24.442Z,26.10
2022-12-05T03:21:57.189Z,23.10
2022-12-05T03:24:26.128Z,17.38
2022-12-05T03:27:04.336Z,17.60
2022-12-05T03:29:37.611Z,13.98
2022-12-05T03:32:13.199Z,12.18
2022-12-05T03:34:53.866Z,15.18
2022-12-05T03:37:28.749Z,15.43
2022-12-05T03:40:06.146Z,15.30
2022-12-05T03:42:37.671Z,15.43
2022-12-05T03:45:10.105Z,14.32
2022-12-05T03:47:47.684Z,16.33
2022-12-05T03:50:24.076Z,16.75
2022-12-05T03:53:19.158Z,17.67
2022-12-05T03:55:48.123Z,16.95
2022-12-05T03:58:24.134Z,15.02
2022-12-05T04:00:55.357Z,14.80
2022-12-05T04:03:39.750Z,16.27
2022-12-05T04:06:20.613Z,16.20
2022-12-05T04:08:54.949Z,14.57
2022-12-05T04:11:26.560Z,15.57
2022-12-05T04:13:57.555Z,16.70
2022-12-05T04:16:47.172Z,14.20
2022-12-05T04:19:21.097Z,15.48
2022-12-05T04:24:38.330Z,12.90
2022-12-05T04:27:29.360Z,13.95
2022-12-05T04:30:04.558Z,14.02
2022-12-05T04:32:39.929Z,16.67
2022-12-05T04:35:16.906Z,14.40
2022-12-05T04:37:49.953Z,12.90
2022-12-05T04:40:23.579Z,13.63
2022-12-05T04:42:54.861Z,12.68
2022-12-05T04:45:26.007Z,12.77
2022-12-05T04:48:00.014Z,12.38
2022-12-05T04:50:33.712Z,12.23
2022-12-05T04:53:03.729Z,12.35
2022-12-05T04:55:34.760Z,12.23
2022-12-05T04:58:08.812Z,11.57
2022-12-05T05:00:46.984Z,12.60
2022-12-05T05:03:20.819Z,13.23
2022-12-05T05:08:22.950Z,11.90
2022-12-05T05:11:02.682Z,12.43
2022-12-05T05:13:30.707Z,12.80
2022-12-05T05:15:58.850Z,13.05
2022-12-05T05:18:26.923Z,13.95
2022-12-05T05:20:56.412Z,14.15
2022-12-05T05:23:24.393Z,13.27
2022-12-05T05:25:55.817Z,13.93
2022-12-05T05:28:24.094Z,13.52
2022-12-05T05:30:52.346Z,15.15
2022-12-05T05:33:20.417Z,15.55
2022-12-05T05:35:48.536Z,15.15
2022-12-05T05:38:17.976Z,15.68
2022-12-05T05:40:46.013Z,15.30
2022-12-05T05:43:14.036Z,14.98
2022-12-05T05:45:42.207Z,14.88
2022-12-05T05:48:10.184Z,17.65
2022-12-05T05:50:38.250Z,16.75
2022-12-05T05:53:06.295Z,15.00
2022-12-05T05:55:35.780Z,16.10
2022-12-05T05:58:03.736Z,15.43
2022-12-05T06:00:31.756Z,16.27
2022-12-05T06:03:00.008Z,16.20
2022-12-05T06:05:28.106Z,16.30
2022-12-05T06:07:56.199Z,26.40
2022-12-05T06:10:24.390Z,126.90
2022-12-05T06:12:53.829Z,38.30
2022-12-05T06:15:21.887Z,25.20
2022-12-05T06:17:49.858Z,204.95
2022-12-05T06:20:18.208Z,21.45
2022-12-05T06:22:46.275Z,15.57
2022-12-05T06:25:14.695Z,16.65
2022-12-05T06:27:42.753Z,15.80
2022-12-05T06:30:13.162Z,15.23
2022-12-05T06:32:41.163Z,14.73
2022-12-05T06:35:15.722Z,15.90
2022-12-05T06:37:44.290Z,16.50
2022-12-05T06:40:15.150Z,16.20
2022-12-05T06:42:44.328Z,15.20
2022-12-05T06:45:15.976Z,15.60
2022-12-05T06:47:45.990Z,16.17
2022-12-05T06:50:14.584Z,12.88
2022-12-05T06:52:42.811Z,14.25
2022-12-05T06:55:11.724Z,14.75
2022-12-05T06:57:39.834Z,13.20
2022-12-05T07:00:26.570Z,14.55
2022-12-05T07:02:56.658Z,12.27
2022-12-05T07:05:24.950Z,13.63
2022-12-05T07:07:53.305Z,13.65
2022-12-05T07:10:21.609Z,14.48
2022-12-05T07:12:49.674Z,12.52
2022-12-05T07:15:17.756Z,11.77
2022-12-05T07:17:45.729Z,13.48
2022-12-05T07:20:17.894Z,11.15
2022-12-05T07:22:46.978Z,9.80
2022-12-05T07:25:15.017Z,11.60
2022-12-05T07:27:43.015Z,9.98
2022-12-05T07:30:11.627Z,8.45
2022-12-05T07:32:39.640Z,9.98
2022-12-05T07:35:08.305Z,9.65
2022-12-05T07:37:37.735Z,8.23
2022-12-05T07:40:06.967Z,8.40
2022-12-05T07:42:35.006Z,8.40
2022-12-05T07:45:03.124Z,7.53
2022-12-05T07:47:31.274Z,7.63
2022-12-05T07:49:59.545Z,5.28
2022-12-05T07:52:28.445Z,7.72
2022-12-05T07:54:58.292Z,8.15
2022-12-05T07:57:26.259Z,7.78
2022-12-05T07:59:55.680Z,7.68
2022-12-05T08:02:24.623Z,6.18
2022-12-05T08:05:06.711Z,6.13
2022-12-05T08:07:34.780Z,6.68
2022-12-05T08:10:05.402Z,6.13
2022-12-05T08:12:34.422Z,5.82
2022-12-05T08:15:03.682Z,6.63
2022-12-05T08:17:33.937Z,7.38
2022-12-05T08:20:03.301Z,7.63
2022-12-05T08:22:31.664Z,8.05
2022-12-05T08:24:59.707Z,7.68
2022-12-05T08:27:29.110Z,8.82
2022-12-05T08:29:57.525Z,9.43
2022-12-05T08:32:25.773Z,9.20
2022-12-05T08:34:53.898Z,10.10
2022-12-05T08:37:21.907Z,10.10
2022-12-05T08:39:50.033Z,9.25
2022-12-05T08:42:18.043Z,10.38
2022-12-05T08:44:47.524Z,9.02
2022-12-05T08:47:15.563Z,9.43
2022-12-05T08:49:43.608Z,9.63
2022-12-05T08:52:11.850Z,9.25
2022-12-05T08:54:40.164Z,8.27
2022-12-05T08:57:08.138Z,9.50
2022-12-05T08:59:36.219Z,11.13
2022-12-05T09:02:05.835Z,9.85
2022-12-05T09:04:34.013Z,8.93
2022-12-05T09:07:03.779Z,9.40
2022-12-05T09:09:32.807Z,10.13
2022-12-05T09:12:01.073Z,8.18
2022-12-05T09:14:33.051Z,8.73
2022-12-05T09:17:02.465Z,8.73
2022-12-05T09:19:31.887Z,8.23
2022-12-05T09:21:59.889Z,9.38
2022-12-05T09:24:28.647Z,8.80
2022-12-05T09:26:56.653Z,8.88
2022-12-05T09:29:25.718Z,8.10
2022-12-05T09:31:55.750Z,9.13
2022-12-05T09:34:26.117Z,7.32
2022-12-05T09:37:10.296Z,7.65
2022-12-05T09:39:45.190Z,6.65
2022-12-05T09:42:29.748Z,7.63
2022-12-05T09:45:14.592Z,7.32
2022-12-05T09:47:58.767Z,5.75
2022-12-05T09:53:05.202Z,5.25
2022-12-05T09:55:41.012Z,5.35
2022-12-05T09:58:22.754Z,4.50
2022-12-05T10:00:54.367Z,4.43
2022-12-05T10:03:27.405Z,4.03
2022-12-05T10:06:06.063Z,4.28
2022-12-05T10:08:42.465Z,4.88
2022-12-05T10:11:17.763Z,5.00
2022-12-05T10:13:55.497Z,5.13
2022-12-05T10:16:30.587Z,4.80
2022-12-05T10:19:02.168Z,5.07
2022-12-05T10:21:35.110Z,5.05
2022-12-05T10:24:07.537Z,5.17
2022-12-05T10:26:39.957Z,5.28
2022-12-05T10:29:16.351Z,4.47
2022-12-05T10:31:46.861Z,4.75
2022-12-05T10:34:19.930Z,4.47
2022-12-05T10:36:57.064Z,4.50
2022-12-05T10:39:26.565Z,3.95
2022-12-05T10:41:55.842Z,4.68
2022-12-05T10:44:23.923Z,4.28
2022-12-05T10:46:52.062Z,4.97
2022-12-05T10:49:20.799Z,5.47
2022-12-05T10:51:49.528Z,5.57
2022-12-05T10:54:21.513Z,6.25
2022-12-05T10:56:52.492Z,6.18
2022-12-05T10:59:22.993Z,5.63
2022-12-05T11:01:54.523Z,5.30
2022-12-05T11:04:26.258Z,6.00
2022-12-05T11:06:58.006Z,6.35
2022-12-05T11:09:28.453Z,4.50
2022-12-05T11:12:06.574Z,6.05
2022-12-05T11:14:36.354Z,6.28
2022-12-05T11:17:06.274Z,5.78
2022-12-05T11:19:36.019Z,6.80
2022-12-05T11:22:08.049Z,6.20
2022-12-05T11:24:37.737Z,5.28
2022-12-05T11:30:06.505Z,6.70
2022-12-05T11:32:35.122Z,6.28
2022-12-05T11:35:10.639Z,5.45
2022-12-05T11:37:44.477Z,5.95
2022-12-05T11:43:04.622Z,6.05
2022-12-05T11:45:52.565Z,6.00
2022-12-05T11:48:31.807Z,6.78
2022-12-05T11:51:16.377Z,6.97
2022-12-05T11:54:10.041Z,6.38
2022-12-05T11:56:40.027Z,6.55
2022-12-05T11:59:33.795Z,5.63
2022-12-05T12:02:15.169Z,6.35
2022-12-05T12:04:53.843Z,6.38
2022-12-05T12:07:31.733Z,7.18
2022-12-05T12:10:16.823Z,6.18
2022-12-05T12:12:56.701Z,8.35
2022-12-05T12:16:02.738Z,6.38
2022-12-05T12:19:04.507Z,7.53
2022-12-05T12:21:46.031Z,7.70
2022-12-05T12:24:23.660Z,7.47
2022-12-05T12:27:02.397Z,7.35
2022-12-05T12:29:44.089Z,6.53
2022-12-05T12:32:24.457Z,8.35
2022-12-05T12:35:15.509Z,7.10
2022-12-05T12:37:53.433Z,7.60
2022-12-05T12:40:24.100Z,7.95
2022-12-05T12:43:05.058Z,7.32
2022-12-05T12:45:46.052Z,8.15
2022-12-05T12:48:27.473Z,8.68
2022-12-05T12:50:59.429Z,7.82
2022-12-05T12:53:51.011Z,7.95
2022-12-05T12:56:36.599Z,7.68
2022-12-05T12:59:22.526Z,8.43
2022-12-05T13:01:56.991Z,9.63
2022-12-05T13:04:29.797Z,8.40
2022-12-05T13:07:04.666Z,9.35
2022-12-05T13:09:37.745Z,7.25
2022-12-05T13:12:11.270Z,6.70
2022-12-05T13:14:44.889Z,4.90
2022-12-05T13:17:18.175Z,6.78
2022-12-05T13:19:50.430Z,5.30
2022-12-05T13:22:22.213Z,5.28
2022-12-05T13:24:51.959Z,5.28
2022-12-05T13:27:22.458Z,5.03
2022-12-05T13:29:54.396Z,5.57
2022-12-05T13:32:30.344Z,5.25
2022-12-05T13:35:00.629Z,5.00
2022-12-05T13:37:48.913Z,5.05
2022-12-05T13:40:44.273Z,5.40
2022-12-05T13:43:14.027Z,4.88
2022-12-05T13:45:44.434Z,4.57
2022-12-05T13:48:22.789Z,4.25
2022-12-05T13:50:55.602Z,4.10
2022-12-05T13:53:30.675Z,4.20
2022-12-05T13:56:01.234Z,4.45
2022-12-05T13:58:47.681Z,4.75
2022-12-05T14:01:50.369Z,4.70
2022-12-05T14:04:50.612Z,4.97
2022-12-05T14:07:38.769Z,4.97
2022-12-05T14:10:09.501Z,4.43
2022-12-05T14:12:55.499Z,5.45
2022-12-05T14:15:31.829Z,4.18
2022-12-05T14:18:07.208Z,4.68
2022-12-05T14:21:03.325Z,4.82
2022-12-05T14:23:51.692Z,5.20
2022-12-05T14:26:42.215Z,4.90
2022-12-05T14:29:26.316Z,5.10
2022-12-05T14:32:05.940Z,4.50
2022-12-05T14:34:37.553Z,4.93
2022-12-05T14:37:09.412Z,6.25
2022-12-05T14:39:41.954Z,22.80
2022-12-05T14:42:25.500Z,15.65
2022-12-05T14:44:56.961Z,13.75
2022-12-05T14:47:28.281Z,14.63
2022-12-05T14:50:02.559Z,8.25
2022-12-05T14:52:34.098Z,9.15
2022-12-05T14:55:09.572Z,6.80
2022-12-05T14:57:46.607Z,5.55
2022-12-05T15:00:22.715Z,5.20
2022-12-05T15:02:55.546Z,4.85
2022-12-05T15:05:27.519Z,5.38
2022-12-05T15:07:56.957Z,6.88
2022-12-05T15:10:29.647Z,5.78
2022-12-05T15:13:02.051Z,9.32
2022-12-05T15:15:37.658Z,6.20
2022-12-05T15:18:24.472Z,19.42
2022-12-05T15:20:58.844Z,12.85
2022-12-05T15:23:40.766Z,12.40
2022-12-05T15:26:48.456Z,10.60
2022-12-05T15:29:11.484Z,20.00
2022-12-05T15:31:45.616Z,26.30
2022-12-05T15:34:18.963Z,22.20
2022-12-05T15:36:50.864Z,15.63
2022-12-05T15:39:23.846Z,7.30
2022-12-05T15:41:52.870Z,4.43
2022-12-05T15:44:27.566Z,5.35
2022-12-05T15:46:57.612Z,5.40
2022-12-05T15:49:26.992Z,7.63
2022-12-05T15:51:58.924Z,4.60
2022-12-05T15:54:32.516Z,5.82
2022-12-05T15:57:06.460Z,7.70
2022-12-05T16:02:13.707Z,6.68
2022-12-05T16:04:47.874Z,9.85
2022-12-05T16:07:16.599Z,8.55
2022-12-05T16:09:47.512Z,8.13
2022-12-05T16:12:28.784Z,5.95
2022-12-05T16:15:02.295Z,7.80
2022-12-05T16:17:31.764Z,7.47
2022-12-05T16:20:12.863Z,9.73
2022-12-05T16:22:46.336Z,8.25
2022-12-05T16:25:16.632Z,9.75
2022-12-05T16:27:56.733Z,8.55
2022-12-05T16:30:27.012Z,8.77
2022-12-05T16:33:02.099Z,5.35
2022-12-05T16:35:33.418Z,5.05
2022-12-05T16:38:10.739Z,5.05
2022-12-05T16:40:40.015Z,4.63
2022-12-05T16:43:19.169Z,6.03
2022-12-05T16:45:49.689Z,7.78
2022-12-05T16:48:22.148Z,8.27
2022-12-05T16:50:52.269Z,8.30
2022-12-05T16:53:25.857Z,8.05
2022-12-05T16:55:54.036Z,6.05
2022-12-05T16:58:24.858Z,5.20
2022-12-05T17:01:01.977Z,5.38
2022-12-05T17:03:35.467Z,5.13
2022-12-05T17:06:04.428Z,5.18
2022-12-05T17:08:32.432Z,5.45
2022-12-05T17:11:02.065Z,5.65
2022-12-05T17:13:31.431Z,5.05
2022-12-05T17:16:00.903Z,5.65
2022-12-05T17:18:31.884Z,7.18
2022-12-05T17:21:02.297Z,6.10
2022-12-05T17:23:30.461Z,5.05
2022-12-05T17:26:00.117Z,5.20
2022-12-05T17:28:28.133Z,5.40
2022-12-05T17:30:56.211Z,4.57
2022-12-05T17:33:25.683Z,5.18
2022-12-05T17:35:53.718Z,4.57
2022-12-05T17:38:22.138Z,4.45
2022-12-05T17:40:50.335Z,5.40
2022-12-05T17:43:24.568Z,4.95
2022-12-05T17:45:54.763Z,5.38
2022-12-05T17:48:23.174Z,4.43
2022-12-05T17:50:52.602Z,5.28
2022-12-05T17:53:22.040Z,5.72
2022-12-05T17:55:50.069Z,6.30
2022-12-05T17:58:18.385Z,5.47
2022-12-05T18:00:46.852Z,6.13
2022-12-05T18:03:16.993Z,6.45
2022-12-05T18:05:45.302Z,5.47
2022-12-05T18:08:16.607Z,5.50
2022-12-05T18:10:46.152Z,5.65
2022-12-05T18:13:14.810Z,6.00
2022-12-05T18:15:43.612Z,5.38
2022-12-05T18:18:16.507Z,5.85
2022-12-05T18:20:44.898Z,6.13
2022-12-05T18:23:14.398Z,6.07
2022-12-05T18:25:43.108Z,6.40
2022-12-05T18:28:13.920Z,11.57
2022-12-05T18:30:44.086Z,14.68
2022-12-05T18:33:12.036Z,10.63
2022-12-05T18:35:42.140Z,7.28
2022-12-05T18:38:11.746Z,7.68
2022-12-05T18:40:41.212Z,7.47
2022-12-05T18:43:09.222Z,6.72
2022-12-05T18:45:38.063Z,6.60
2022-12-05T18:50:54.763Z,7.15
2022-12-05T18:53:22.994Z,6.53
2022-12-05T18:56:13.495Z,7.63
2022-12-05T18:58:40.516Z,8.02
2022-12-05T19:01:09.913Z,6.63
2022-12-05T19:03:39.345Z,6.55
2022-12-05T19:06:13.705Z,7.05
2022-12-05T19:08:42.110Z,6.88
2022-12-05T19:11:12.530Z,7.40
2022-12-05T19:13:40.509Z,7.90
2022-12-05T19:16:10.286Z,7.70
2022-12-05T19:18:38.346Z,8.88
2022-12-05T19:21:06.576Z,7.47
2022-12-05T19:23:35.472Z,7.53
2022-12-05T19:26:05.256Z,7.32
2022-12-05T19:28:35.477Z,8.77
2022-12-05T19:31:05.380Z,7.55
2022-12-05T19:33:34.210Z,8.57
2022-12-05T19:36:07.296Z,7.43
2022-12-05T19:38:36.390Z,7.25
2022-12-05T19:41:05.013Z,7.55
2022-12-05T19:43:35.877Z,7.75
2022-12-05T19:46:05.337Z,7.72
2022-12-05T19:48:33.547Z,6.97
2022-12-05T19:51:02.950Z,6.50
2022-12-05T19:53:33.024Z,6.22
2022-12-05T19:56:02.454Z,7.05
2022-12-05T19:58:32.770Z,7.15
2022-12-05T20:01:10.146Z,6.85
2022-12-05T20:03:38.817Z,7.13
2022-12-05T20:06:07.963Z,6.95
2022-12-05T20:08:37.351Z,7.40
2022-12-05T20:11:07.396Z,7.60
2022-12-05T20:13:52.010Z,6.65
2022-12-05T20:16:22.852Z,7.85
2022-12-05T20:18:51.382Z,7.30
2022-12-05T20:21:22.112Z,7.10
2022-12-05T20:23:50.581Z,6.22
2022-12-05T20:26:20.844Z,7.00
2022-12-05T20:28:49.271Z,6.82
2022-12-05T20:31:19.293Z,5.63
2022-12-05T20:33:50.396Z,5.47
2022-12-05T20:36:19.906Z,7.05
2022-12-05T20:38:48.925Z,6.20
2022-12-05T20:41:19.587Z,6.53
2022-12-05T20:43:49.952Z,6.32
2022-12-05T20:46:20.929Z,6.10
2022-12-05T20:48:51.813Z,6.22
2022-12-05T20:51:23.152Z,6.05
2022-12-05T20:53:51.962Z,5.72
2022-12-05T20:56:21.774Z,5.40
2022-12-05T20:58:51.999Z,5.70
2022-12-05T21:01:22.520Z,5.25
2022-12-05T21:03:53.446Z,6.05
2022-12-05T21:06:25.296Z,6.03
2022-12-05T21:08:54.864Z,5.75
2022-12-05T21:11:23.983Z,5.57
2022-12-05T21:13:52.532Z,5.53
2022-12-05T21:16:23.139Z,6.05
2022-12-05T21:18:53.374Z,6.25
2022-12-05T21:21:22.871Z,5.28
2022-12-05T21:23:55.526Z,5.72
2022-12-05T21:26:24.683Z,5.53
2022-12-05T21:28:52.815Z,6.25
2022-12-05T21:31:23.167Z,5.28
2022-12-05T21:33:54.457Z,5.45
2022-12-05T21:36:23.450Z,5.15
2022-12-05T21:38:56.030Z,5.57
2022-12-05T21:41:25.087Z,5.22
2022-12-05T21:43:55.643Z,5.10
2022-12-05T21:46:24.459Z,4.97
2022-12-05T21:48:54.023Z,5.68
2022-12-05T21:51:22.711Z,5.55
2022-12-05T21:53:50.973Z,5.03
2022-12-05T21:56:22.925Z,5.63
2022-12-05T21:58:52.149Z,5.25
2022-12-05T22:01:23.326Z,5.80
2022-12-05T22:03:55.933Z,4.30
2022-12-05T22:06:35.154Z,4.97
2022-12-05T22:09:06.097Z,5.38
2022-12-05T22:11:34.376Z,4.65
2022-12-05T22:14:02.643Z,4.07
2022-12-05T22:16:33.796Z,4.38
2022-12-05T22:19:04.702Z,4.63
2022-12-05T22:21:34.224Z,5.15
2022-12-05T22:24:02.562Z,4.63
2022-12-05T22:26:34.243Z,5.25
2022-12-05T22:29:02.409Z,5.15
2022-12-05T22:31:30.773Z,6.38
2022-12-05T22:33:59.610Z,4.20
2022-12-05T22:36:29.080Z,5.10
2022-12-05T22:38:59.402Z,4.80
2022-12-05T22:41:28.184Z,5.47
2022-12-05T22:43:58.510Z,5.32
2022-12-05T22:46:29.221Z,5.53
2022-12-05T22:48:58.399Z,5.10
2022-12-05T22:51:28.234Z,4.88
2022-12-05T22:53:56.521Z,5.07
2022-12-05T22:56:26.757Z,5.40
2022-12-05T22:58:55.957Z,5.35
2022-12-05T23:01:26.046Z,5.68
2022-12-05T23:03:57.301Z,4.43
2022-12-05T23:06:26.000Z,4.50
2022-12-05T23:08:56.297Z,4.68
2022-12-05T23:11:25.705Z,4.70
2022-12-05T23:14:01.389Z,3.95
2022-12-05T23:16:32.337Z,5.07
2022-12-05T23:19:04.690Z,4.63
2022-12-05T23:21:35.453Z,5.53
2022-12-05T23:24:07.661Z,5.80
2022-12-05T23:26:38.033Z,5.78
2022-12-05T23:29:06.179Z,5.25
2022-12-05T23:31:34.382Z,6.15
2022-12-05T23:34:03.776Z,5.85
2022-12-05T23:36:32.685Z,5.60
2022-12-05T23:39:01.034Z,4.97
2022-12-05T23:41:30.647Z,5.57
2022-12-05T23:43:58.878Z,5.38
2022-12-05T23:46:28.950Z,4.18
2022-12-05T23:48:58.127Z,5.25
2022-12-05T23:51:27.926Z,4.50
2022-12-05T23:53:57.656Z,4.10
2022-12-05T23:56:27.970Z,3.90
2022-12-05T23:58:58.057Z,4.40
